Time;durP1;ratioP1;P1;durP2;ratioP2;P2;SDS_P1;SDS_P2;PMS_P1;PMS_P2;Temp;Humidity;BMP_temperature;BMP_pressure;BME280_temperature;BME280_humidity;BME280_pressure;Samples;Min_cycle;Max_cycle;Signal;HPM_P1;HPM_P2
2022/03/09 00:01:48;;;;;;;21.25;13.63;;;-2.60;99.90;;;;;;5051642;28;20060;-59
2022/03/09 00:04:14;;;;;;;24.05;15.02;;;-2.70;99.90;;;;;;5051517;28;20021;-59
2022/03/09 00:06:40;;;;;;;25.67;13.93;;;-2.70;99.90;;;;;;5050428;28;20024;-59
2022/03/09 00:09:06;;;;;;;26.92;13.70;;;-2.70;99.90;;;;;;5050472;28;20021;-57
2022/03/09 00:11:32;;;;;;;28.00;13.73;;;-2.70;99.90;;;;;;5050450;28;20032;-59
2022/03/09 00:13:58;;;;;;;19.77;13.45;;;-2.70;99.90;;;;;;5050120;28;20037;-59
2022/03/09 00:16:24;;;;;;;31.92;14.70;;;-2.80;99.90;;;;;;5050682;28;20028;-59
2022/03/09 00:18:50;;;;;;;30.45;15.77;;;-2.80;99.90;;;;;;5051319;28;20021;-56
2022/03/09 00:21:16;;;;;;;32.33;15.60;;;-2.80;99.90;;;;;;5050590;28;20013;-53
2022/03/09 00:23:41;;;;;;;27.35;16.00;;;-2.90;99.90;;;;;;5050545;28;20032;-54
2022/03/09 00:26:07;;;;;;;25.13;15.35;;;-2.90;99.90;;;;;;5050627;28;20651;-57
2022/03/09 00:28:33;;;;;;;31.13;15.57;;;-3.00;99.90;;;;;;5049613;28;20021;-55
2022/03/09 00:30:58;;;;;;;30.98;14.98;;;-3.10;99.90;;;;;;5051259;28;20021;-58
2022/03/09 00:33:24;;;;;;;27.13;15.10;;;-3.00;99.90;;;;;;5051021;28;20032;-56
2022/03/09 00:35:50;;;;;;;36.00;15.52;;;-3.10;99.90;;;;;;5051288;28;20090;-57
2022/03/09 00:38:15;;;;;;;30.42;14.18;;;-3.10;99.90;;;;;;5051341;28;20021;-59
2022/03/09 00:40:41;;;;;;;35.90;13.48;;;-3.20;99.90;;;;;;5051242;28;20882;-58
2022/03/09 00:43:07;;;;;;;24.92;14.13;;;-3.20;99.90;;;;;;5051424;28;20086;-58
2022/03/09 00:45:32;;;;;;;26.33;14.30;;;-3.30;99.90;;;;;;5051295;28;20132;-58
2022/03/09 00:47:58;;;;;;;25.88;13.68;;;-3.30;99.90;;;;;;5051247;28;20033;-59
2022/03/09 00:50:23;;;;;;;21.42;14.05;;;-3.30;99.90;;;;;;5051419;28;20021;-57
2022/03/09 00:52:49;;;;;;;23.30;12.38;;;-3.30;99.90;;;;;;5055311;28;20029;-59
2022/03/09 00:55:15;;;;;;;18.30;13.27;;;-3.30;99.90;;;;;;5055141;28;20025;-56
2022/03/09 00:57:41;;;;;;;23.17;12.63;;;-3.20;99.90;;;;;;5055106;28;20021;-59
2022/03/09 01:00:08;;;;;;;27.02;13.57;;;-3.20;99.90;;;;;;5054975;28;20071;-58
2022/03/09 01:02:40;;;;;;;18.42;12.88;;;-3.20;99.90;;;;;;5054793;28;20079;-54
2022/03/09 01:05:06;;;;;;;29.93;13.67;;;-3.20;99.90;;;;;;5055108;28;20009;-54
2022/03/09 01:07:32;;;;;;;20.95;14.00;;;-3.20;99.90;;;;;;5054728;28;20025;-58
2022/03/09 01:09:57;;;;;;;29.67;14.05;;;-3.30;99.90;;;;;;5054919;28;20388;-57
2022/03/09 01:12:23;;;;;;;18.45;13.48;;;-3.30;99.90;;;;;;5054702;28;20027;-57
2022/03/09 01:14:49;;;;;;;21.98;12.57;;;-3.40;99.90;;;;;;5053392;28;20120;-58
2022/03/09 01:17:14;;;;;;;25.83;14.20;;;-3.40;99.90;;;;;;5054778;28;20416;-58
2022/03/09 01:19:40;;;;;;;22.20;12.60;;;-3.30;99.90;;;;;;5054604;28;20460;-58
2022/03/09 01:22:05;;;;;;;26.48;13.48;;;-3.30;99.90;;;;;;5054550;28;20108;-56
2022/03/09 01:24:31;;;;;;;18.77;11.75;;;-3.30;99.90;;;;;;5054536;28;20029;-59
2022/03/09 01:26:57;;;;;;;22.67;12.25;;;-3.30;99.90;;;;;;5054525;28;20029;-57
2022/03/09 01:29:22;;;;;;;22.63;12.52;;;-3.40;99.90;;;;;;5054287;28;20094;-59
2022/03/09 01:31:48;;;;;;;17.30;11.45;;;-3.40;99.90;;;;;;5054182;28;20452;-53
2022/03/09 01:34:13;;;;;;;22.30;12.45;;;-3.50;99.90;;;;;;5053142;28;20036;-58
2022/03/09 01:36:39;;;;;;;17.08;12.43;;;-3.60;99.90;;;;;;5054293;28;20035;-56
2022/03/09 01:39:05;;;;;;;24.20;12.77;;;-3.50;99.90;;;;;;5054361;28;20093;-53
2022/03/09 01:41:31;;;;;;;21.00;13.48;;;-3.60;99.90;;;;;;5054355;28;20096;-58
2022/03/09 01:44:15;;;;;;;17.92;13.15;;;-3.60;99.90;;;;;;5054366;28;20025;-55
2022/03/09 01:46:41;;;;;;;19.67;13.15;;;-3.60;99.90;;;;;;5054119;28;20387;-58
2022/03/09 01:49:09;;;;;;;19.65;12.20;;;-3.60;99.90;;;;;;5054257;28;20029;-56
2022/03/09 01:51:38;;;;;;;21.40;12.90;;;-3.60;99.90;;;;;;5053903;28;20402;-57
2022/03/09 01:54:04;;;;;;;23.00;13.40;;;-3.60;99.90;;;;;;5052645;28;20483;-53
2022/03/09 01:56:30;;;;;;;27.13;14.02;;;-3.70;99.90;;;;;;5053799;28;20025;-57
2022/03/09 01:58:57;;;;;;;19.27;12.27;;;-3.70;99.90;;;;;;5054123;28;20020;-58
2022/03/09 02:01:23;;;;;;;19.63;12.18;;;-3.70;99.90;;;;;;5054152;28;20017;-57
2022/03/09 02:03:49;;;;;;;19.30;13.10;;;-3.70;99.90;;;;;;5053348;28;20513;-58
2022/03/09 02:06:15;;;;;;;22.13;13.73;;;-3.70;99.90;;;;;;5053874;28;20009;-53
2022/03/09 02:11:27;;;;;;;22.92;13.00;;;-3.80;99.90;;;;;;5053747;28;20024;-56
2022/03/09 02:13:53;;;;;;;23.42;12.50;;;-3.80;99.90;;;;;;5053589;28;20048;-57
2022/03/09 02:16:18;;;;;;;19.02;13.18;;;-3.80;99.90;;;;;;5053836;28;20086;-56
2022/03/09 02:18:44;;;;;;;19.92;13.27;;;-3.80;99.90;;;;;;5053232;28;20021;-55
2022/03/09 02:21:15;;;;;;;19.73;12.35;;;-3.90;99.90;;;;;;5053665;28;20032;-56
2022/03/09 02:23:41;;;;;;;19.17;12.18;;;-3.90;99.90;;;;;;5052558;28;20032;-59
2022/03/09 02:26:07;;;;;;;24.05;12.77;;;-3.90;99.90;;;;;;5053719;28;20025;-58
2022/03/09 02:28:44;;;;;;;21.08;13.65;;;-4.00;99.90;;;;;;5053138;28;20017;-58
2022/03/09 02:31:10;;;;;;;15.40;10.98;;;-4.00;99.90;;;;;;5053435;28;20017;-57
2022/03/09 02:33:35;;;;;;;20.55;13.45;;;-4.00;99.90;;;;;;5053100;28;20159;-55
2022/03/09 02:36:02;;;;;;;17.20;12.55;;;-4.00;99.90;;;;;;5053257;28;20051;-54
2022/03/09 02:38:28;;;;;;;18.50;12.68;;;-4.00;99.90;;;;;;5053219;28;20043;-55
2022/03/09 02:40:54;;;;;;;23.23;13.63;;;-4.00;99.90;;;;;;5053293;28;20025;-56
2022/03/09 02:43:19;;;;;;;17.50;13.20;;;-4.10;99.90;;;;;;5053158;28;20021;-56
2022/03/09 02:45:45;;;;;;;18.42;13.38;;;-4.10;99.90;;;;;;5053103;28;20158;-52
2022/03/09 02:48:11;;;;;;;17.42;12.10;;;-4.20;99.90;;;;;;5053036;28;20059;-56
2022/03/09 02:50:37;;;;;;;18.48;13.65;;;-4.30;99.90;;;;;;5052991;28;20086;-56
2022/03/09 02:53:02;;;;;;;18.60;13.48;;;-4.30;99.90;;;;;;5052955;28;20039;-58
2022/03/09 02:55:28;;;;;;;22.15;12.45;;;-4.30;99.90;;;;;;5052906;28;20027;-58
2022/03/09 02:57:54;;;;;;;18.38;13.25;;;-4.20;99.90;;;;;;5052920;28;20025;-58
2022/03/09 03:00:19;;;;;;;17.80;11.63;;;-4.20;99.90;;;;;;5053047;28;20025;-58
2022/03/09 03:02:45;;;;;;;19.10;12.57;;;-4.30;99.90;;;;;;5052635;28;20013;-59
2022/03/09 03:05:11;;;;;;;19.27;13.50;;;-4.20;99.90;;;;;;5052808;28;20033;-57
2022/03/09 03:07:37;;;;;;;20.10;13.20;;;-4.20;99.90;;;;;;5052562;28;20477;-57
2022/03/09 03:10:04;;;;;;;18.67;13.48;;;-4.20;99.90;;;;;;5052671;28;20365;-54
2022/03/09 03:12:30;;;;;;;21.42;13.18;;;-4.10;99.90;;;;;;5052215;28;20033;-53
2022/03/09 03:14:55;;;;;;;21.27;13.13;;;-4.20;99.90;;;;;;5051532;28;20087;-56
2022/03/09 03:17:21;;;;;;;28.45;13.90;;;-4.20;99.90;;;;;;5052320;28;20017;-56
2022/03/09 03:19:47;;;;;;;20.80;13.07;;;-4.10;99.90;;;;;;5052375;28;20112;-58
2022/03/09 03:22:12;;;;;;;24.75;13.93;;;-4.20;99.90;;;;;;5052445;28;20053;-56
2022/03/09 03:24:38;;;;;;;19.63;13.30;;;-4.10;99.90;;;;;;5052249;28;20021;-56
2022/03/09 03:27:04;;;;;;;17.45;13.85;;;-4.20;99.90;;;;;;5052344;28;20074;-58
2022/03/09 03:29:29;;;;;;;22.75;13.80;;;-4.20;99.90;;;;;;5052229;28;20056;-54
2022/03/09 03:31:55;;;;;;;20.05;13.68;;;-4.20;99.90;;;;;;5052176;28;20028;-58
2022/03/09 03:34:21;;;;;;;24.42;14.25;;;-4.30;99.90;;;;;;5052142;28;20024;-58
2022/03/09 03:36:46;;;;;;;23.98;13.55;;;-4.30;99.90;;;;;;5052117;28;20024;-56
2022/03/09 03:39:14;;;;;;;21.83;12.15;;;-4.20;99.90;;;;;;5052157;28;20051;-56
2022/03/09 03:41:40;;;;;;;20.80;14.45;;;-4.30;99.90;;;;;;5051990;28;20354;-56
2022/03/09 03:44:05;;;;;;;23.55;13.90;;;-4.30;99.90;;;;;;5050762;28;20492;-55
2022/03/09 03:46:32;;;;;;;25.33;13.57;;;-4.30;99.90;;;;;;5051779;28;20029;-58
2022/03/09 03:48:58;;;;;;;21.25;15.23;;;-4.30;99.90;;;;;;5050598;28;20415;-55
2022/03/09 03:51:23;;;;;;;24.67;14.95;;;-4.30;99.90;;;;;;5051714;28;20087;-57
2022/03/09 03:53:49;;;;;;;22.55;15.00;;;-4.30;99.90;;;;;;5051833;28;20075;-58
2022/03/09 03:56:14;;;;;;;19.90;14.45;;;-4.20;99.90;;;;;;5050655;28;20540;-53
2022/03/09 03:58:40;;;;;;;28.02;14.55;;;-4.20;99.90;;;;;;5051655;28;20108;-56
2022/03/09 04:01:06;;;;;;;20.98;13.70;;;-4.20;99.90;;;;;;5051712;28;20108;-58
2022/03/09 04:03:31;;;;;;;20.95;13.60;;;-4.20;99.90;;;;;;5051645;28;20021;-59
2022/03/09 04:05:57;;;;;;;22.38;14.07;;;-4.30;99.90;;;;;;5051747;28;20638;-52
2022/03/09 04:08:23;;;;;;;18.92;13.13;;;-4.40;99.90;;;;;;5050336;28;20380;-57
2022/03/09 04:10:48;;;;;;;17.50;12.93;;;-4.30;99.90;;;;;;5051204;28;20029;-57
2022/03/09 04:13:14;;;;;;;19.90;13.52;;;-4.30;99.90;;;;;;5050268;28;20076;-55
2022/03/09 04:15:40;;;;;;;19.98;11.77;;;-4.40;99.90;;;;;;5051158;28;20037;-55
2022/03/09 04:18:05;;;;;;;19.02;13.05;;;-4.40;99.90;;;;;;5050726;28;20025;-57
2022/03/09 04:20:31;;;;;;;18.48;12.60;;;-4.50;99.90;;;;;;5050495;28;20050;-59
2022/03/09 04:22:57;;;;;;;18.33;12.20;;;-4.50;99.90;;;;;;5051080;28;20108;-58
2022/03/09 04:25:23;;;;;;;16.75;13.32;;;-4.50;99.90;;;;;;5050313;28;20078;-59
2022/03/09 04:27:49;;;;;;;19.60;13.02;;;-4.50;99.90;;;;;;5050015;28;20029;-58
2022/03/09 04:30:14;;;;;;;18.45;11.95;;;-4.50;99.90;;;;;;5050320;28;20472;-59
2022/03/09 04:32:40;;;;;;;19.23;11.18;;;-4.50;99.90;;;;;;5051116;28;20464;-58
2022/03/09 04:35:06;;;;;;;24.15;12.80;;;-4.50;99.90;;;;;;5051135;28;20017;-59
2022/03/09 04:37:33;;;;;;;32.97;12.93;;;-4.50;99.90;;;;;;5051190;28;20070;-59
2022/03/09 04:39:59;;;;;;;20.02;13.93;;;-4.60;99.90;;;;;;5051470;28;20024;-58
2022/03/09 04:42:26;;;;;;;21.35;12.25;;;-4.60;99.90;;;;;;5051222;28;20102;-58
2022/03/09 04:44:52;;;;;;;19.17;12.43;;;-4.60;99.90;;;;;;5051265;28;20029;-59
2022/03/09 04:47:17;;;;;;;23.58;13.45;;;-4.60;99.90;;;;;;5051156;28;20358;-57
2022/03/09 04:49:43;;;;;;;24.23;14.57;;;-4.60;99.90;;;;;;5049577;28;20053;-59
2022/03/09 04:52:09;;;;;;;17.23;13.27;;;-4.60;99.90;;;;;;5050069;28;20040;-56
2022/03/09 04:54:34;;;;;;;17.88;13.57;;;-4.70;99.90;;;;;;5050630;28;20025;-59
2022/03/09 04:57:00;;;;;;;20.98;14.55;;;-4.60;99.90;;;;;;5051339;28;20071;-59
2022/03/09 04:59:26;;;;;;;21.92;13.70;;;-4.60;99.90;;;;;;5050772;28;20017;-59
2022/03/09 05:01:52;;;;;;;27.95;14.77;;;-4.50;99.90;;;;;;5050790;28;20032;-59
2022/03/09 05:04:17;;;;;;;21.63;15.38;;;-4.50;99.90;;;;;;5051155;28;20025;-57
2022/03/09 05:06:43;;;;;;;20.70;13.90;;;-4.60;99.90;;;;;;5050879;28;20029;-57
2022/03/09 05:09:09;;;;;;;26.02;13.57;;;-4.60;99.90;;;;;;5049896;28;20423;-59
2022/03/09 05:11:34;;;;;;;29.70;17.05;;;-4.60;99.90;;;;;;5050871;28;20086;-58
2022/03/09 05:14:00;;;;;;;43.78;16.33;;;-4.60;99.90;;;;;;5050437;28;20049;-58
2022/03/09 05:16:26;;;;;;;19.25;13.95;;;-4.60;99.90;;;;;;5051187;28;20031;-58
2022/03/09 05:18:51;;;;;;;51.10;14.85;;;-4.70;99.90;;;;;;5051046;28;20059;-58
2022/03/09 05:21:17;;;;;;;31.15;14.23;;;-4.70;99.90;;;;;;5051044;28;20024;-59
2022/03/09 05:23:42;;;;;;;23.58;13.55;;;-4.80;99.90;;;;;;5049489;28;20029;-59
2022/03/09 05:26:08;;;;;;;22.60;14.43;;;-4.80;99.90;;;;;;5051005;28;20021;-59
2022/03/09 05:28:34;;;;;;;25.88;14.20;;;-4.90;99.90;;;;;;5050682;28;20461;-59
2022/03/09 05:31:00;;;;;;;25.52;13.77;;;-4.80;99.90;;;;;;5050678;28;20668;-58
2022/03/09 05:33:26;;;;;;;23.75;13.27;;;-4.80;99.90;;;;;;5050314;28;20021;-58
2022/03/09 05:35:51;;;;;;;24.13;14.70;;;-4.80;99.90;;;;;;5050602;28;20348;-58
2022/03/09 05:38:17;;;;;;;32.08;14.55;;;-4.80;99.90;;;;;;5052249;28;20033;-58
2022/03/09 05:40:43;;;;;;;23.13;14.45;;;-4.80;99.90;;;;;;5053769;28;20033;-57
2022/03/09 05:43:08;;;;;;;25.48;15.02;;;-4.70;99.90;;;;;;5054157;28;20021;-58
2022/03/09 05:45:34;;;;;;;24.10;14.27;;;-4.70;99.90;;;;;;5053294;28;20159;-58
2022/03/09 05:48:00;;;;;;;27.38;14.13;;;-4.70;99.90;;;;;;5053866;28;20021;-57
2022/03/09 05:50:25;;;;;;;25.15;13.70;;;-4.70;99.90;;;;;;5053885;28;20037;-60
2022/03/09 05:52:51;;;;;;;26.80;13.05;;;-4.70;99.90;;;;;;5053368;28;20442;-59
2022/03/09 05:55:17;;;;;;;20.45;13.95;;;-4.70;99.90;;;;;;5053485;28;20160;-59
2022/03/09 05:57:43;;;;;;;17.00;12.40;;;-4.60;99.90;;;;;;5052882;28;20040;-59
2022/03/09 06:00:09;;;;;;;34.83;18.83;;;-4.70;99.90;;;;;;5052950;28;20126;-57
2022/03/09 06:02:35;;;;;;;20.13;13.38;;;-4.60;99.90;;;;;;5052936;28;20068;-58
2022/03/09 06:05:00;;;;;;;29.85;15.52;;;-4.60;99.90;;;;;;5053925;28;20044;-57
2022/03/09 06:07:26;;;;;;;27.83;15.20;;;-4.50;99.90;;;;;;5053718;28;20033;-57
2022/03/09 06:09:52;;;;;;;17.35;12.32;;;-4.40;99.90;;;;;;5053786;28;20078;-55
2022/03/09 06:12:18;;;;;;;24.95;13.68;;;-4.40;99.90;;;;;;5053761;28;20031;-59
2022/03/09 06:14:44;;;;;;;62.03;18.08;;;-4.30;99.90;;;;;;5053273;28;20128;-58
2022/03/09 06:17:11;;;;;;;48.97;24.35;;;-4.20;99.90;;;;;;5053205;28;20044;-57
2022/03/09 06:19:37;;;;;;;46.55;20.05;;;-4.20;99.90;;;;;;5053086;28;20062;-58
2022/03/09 06:22:02;;;;;;;130.15;54.03;;;-4.10;99.90;;;;;;5053366;28;20025;-60
2022/03/09 06:24:28;;;;;;;81.35;32.08;;;-4.00;99.90;;;;;;5052659;28;20052;-59
2022/03/09 06:26:54;;;;;;;98.57;46.30;;;-3.90;99.90;;;;;;5053084;28;20028;-58
2022/03/09 06:29:20;;;;;;;65.82;35.90;;;-3.80;99.90;;;;;;5052590;28;20025;-58
2022/03/09 06:31:46;;;;;;;53.25;25.67;;;-3.80;99.90;;;;;;5052628;28;20033;-58
2022/03/09 06:34:12;;;;;;;29.90;19.55;;;-3.70;99.90;;;;;;5053227;28;20074;-57
2022/03/09 06:36:43;;;;;;;27.50;17.08;;;-3.60;99.90;;;;;;5053259;28;20100;-58
2022/03/09 06:39:09;;;;;;;30.67;16.25;;;-3.40;99.90;;;;;;5051830;28;20029;-59
2022/03/09 06:41:35;;;;;;;24.00;15.48;;;-3.30;99.90;;;;;;5053075;28;20055;-58
2022/03/09 06:44:01;;;;;;;20.50;14.93;;;-3.20;99.90;;;;;;5053217;28;20063;-57
2022/03/09 06:46:26;;;;;;;21.52;15.93;;;-3.00;99.90;;;;;;5053000;28;20037;-59
2022/03/09 06:48:52;;;;;;;22.05;15.32;;;-2.80;99.90;;;;;;5052962;28;20025;-58
2022/03/09 06:51:18;;;;;;;30.88;15.93;;;-2.70;99.90;;;;;;5053061;28;20368;-57
2022/03/09 06:53:45;;;;;;;26.05;16.10;;;-2.60;99.90;;;;;;5052497;28;20033;-57
2022/03/09 06:56:11;;;;;;;21.20;14.32;;;-2.50;99.90;;;;;;5052718;28;20021;-63
2022/03/09 06:58:37;;;;;;;20.90;13.93;;;-2.30;99.90;;;;;;5052677;28;20033;-57
2022/03/09 07:01:04;;;;;;;21.50;11.68;;;-2.20;99.90;;;;;;5051570;28;20025;-57
2022/03/09 07:03:30;;;;;;;18.33;12.70;;;-2.10;99.90;;;;;;5052473;28;20033;-59
2022/03/09 07:05:56;;;;;;;16.83;13.02;;;-1.90;99.90;;;;;;5052691;28;20031;-59
2022/03/09 07:08:22;;;;;;;20.67;12.98;;;-1.70;99.90;;;;;;5052397;28;20124;-59
2022/03/09 07:10:47;;;;;;;20.20;12.93;;;-1.60;99.90;;;;;;5052293;28;20071;-58
2022/03/09 07:13:13;;;;;;;23.33;14.27;;;-1.40;99.90;;;;;;5050923;28;20041;-58
2022/03/09 07:15:39;;;;;;;27.77;14.52;;;-1.30;99.90;;;;;;5052376;28;20098;-59
2022/03/09 07:18:04;;;;;;;24.15;13.40;;;-1.10;99.90;;;;;;5052488;28;20108;-59
2022/03/09 07:20:30;;;;;;;18.52;11.38;;;-0.90;99.90;;;;;;5052254;28;20109;-58
2022/03/09 07:22:56;;;;;;;17.27;12.30;;;-0.80;99.90;;;;;;5052071;28;20423;-55
2022/03/09 07:25:21;;;;;;;26.52;14.40;;;-0.60;99.90;;;;;;5051952;28;20025;-55
2022/03/09 07:27:47;;;;;;;34.53;16.20;;;-0.40;99.90;;;;;;5051744;28;20025;-59
2022/03/09 07:30:14;;;;;;;21.92;15.13;;;-0.30;99.90;;;;;;5052037;28;20040;-58
2022/03/09 07:32:40;;;;;;;25.27;15.63;;;-0.20;99.90;;;;;;5050324;28;20392;-58
2022/03/09 07:35:07;;;;;;;23.05;14.68;;;0.00;99.90;;;;;;5051905;28;20025;-59
2022/03/09 07:37:32;;;;;;;20.98;14.23;;;0.00;99.90;;;;;;5051699;28;20079;-57
2022/03/09 07:39:58;;;;;;;22.20;13.80;;;0.10;99.90;;;;;;5039008;28;20021;-57
2022/03/09 07:42:24;;;;;;;31.70;15.38;;;0.20;99.90;;;;;;5041094;28;20099;-58
2022/03/09 07:44:49;;;;;;;16.92;12.32;;;0.30;99.90;;;;;;5041420;28;20375;-59
2022/03/09 07:47:15;;;;;;;27.30;13.05;;;0.50;99.90;;;;;;5041333;28;20037;-59
2022/03/09 07:49:41;;;;;;;29.27;10.85;;;0.60;99.90;;;;;;5041537;28;20055;-58
2022/03/09 07:52:07;;;;;;;17.02;10.95;;;0.80;99.90;;;;;;5041043;28;20467;-58
2022/03/09 07:54:32;;;;;;;30.17;10.48;;;1.00;99.90;;;;;;5042193;28;20099;-59
2022/03/09 07:56:59;;;;;;;29.30;9.80;;;1.20;99.90;;;;;;5041470;28;20032;-58
2022/03/09 07:59:27;;;;;;;17.17;9.70;;;1.40;99.90;;;;;;5041107;28;20025;-58
2022/03/09 08:01:54;;;;;;;19.50;8.95;;;1.50;99.90;;;;;;5039197;28;20033;-57
2022/03/09 08:04:23;;;;;;;12.80;8.90;;;1.70;99.90;;;;;;5039382;28;20069;-55
2022/03/09 08:06:50;;;;;;;26.67;8.65;;;1.80;99.90;;;;;;5039534;28;20384;-56
2022/03/09 08:09:16;;;;;;;15.57;8.77;;;1.90;98.00;;;;;;5038998;28;20412;-56
2022/03/09 08:11:43;;;;;;;15.75;9.30;;;2.10;98.60;;;;;;5040366;28;20033;-58
2022/03/09 08:14:09;;;;;;;14.07;8.48;;;2.30;99.30;;;;;;5040850;28;20049;-57
2022/03/09 08:16:35;;;;;;;14.73;7.20;;;2.40;98.00;;;;;;5039715;28;20021;-55
2022/03/09 08:19:01;;;;;;;12.35;7.95;;;2.40;96.70;;;;;;5039460;28;20472;-56
2022/03/09 08:21:27;;;;;;;11.85;8.00;;;2.60;96.70;;;;;;5039801;28;20031;-58
2022/03/09 08:23:52;;;;;;;12.70;7.25;;;2.70;96.40;;;;;;5039530;28;22626;-59
2022/03/09 08:26:18;;;;;;;122.93;12.52;;;2.90;96.30;;;;;;5042204;28;20026;-59
2022/03/09 08:28:44;;;;;;;17.25;9.70;;;3.00;95.10;;;;;;5040020;28;20032;-55
2022/03/09 08:31:10;;;;;;;12.30;8.15;;;3.00;95.20;;;;;;5039766;28;20538;-57
2022/03/09 08:33:36;;;;;;;14.57;9.02;;;3.00;93.60;;;;;;5039660;28;20033;-55
2022/03/09 08:36:01;;;;;;;20.05;8.35;;;3.10;93.90;;;;;;5044202;28;20025;-56
2022/03/09 08:38:27;;;;;;;15.57;8.15;;;3.20;94.40;;;;;;5039923;28;20463;-58
2022/03/09 08:40:53;;;;;;;11.80;8.43;;;3.40;93.20;;;;;;5041122;28;20071;-58
2022/03/09 08:43:19;;;;;;;16.45;8.43;;;3.50;93.30;;;;;;5040626;28;20124;-58
2022/03/09 08:45:45;;;;;;;13.73;8.95;;;3.50;90.80;;;;;;5040427;28;20120;-56
2022/03/09 08:48:11;;;;;;;16.35;7.88;;;3.70;92.30;;;;;;5041077;28;20033;-58
2022/03/09 08:50:36;;;;;;;16.48;9.45;;;3.70;91.20;;;;;;5039708;28;20044;-58
2022/03/09 08:53:03;;;;;;;33.90;8.88;;;4.00;90.80;;;;;;5039384;28;20037;-56
2022/03/09 08:55:29;;;;;;;12.05;7.80;;;4.00;89.30;;;;;;5041093;28;20048;-58
2022/03/09 08:57:55;;;;;;;12.07;7.45;;;4.00;86.20;;;;;;5040280;28;20033;-57
2022/03/09 09:00:21;;;;;;;19.33;8.02;;;4.10;86.50;;;;;;5048021;28;20086;-55
2022/03/09 09:02:47;;;;;;;16.85;8.27;;;4.20;88.70;;;;;;5050645;28;20065;-58
2022/03/09 09:05:12;;;;;;;13.63;8.07;;;4.30;83.50;;;;;;5050217;28;20036;-58
2022/03/09 09:07:38;;;;;;;21.85;8.15;;;4.40;82.90;;;;;;5050104;28;20025;-58
2022/03/09 09:10:06;;;;;;;11.80;7.60;;;4.60;83.70;;;;;;5050219;28;20609;-57
2022/03/09 09:12:32;;;;;;;28.70;18.33;;;4.80;80.60;;;;;;5050421;28;20013;-58
2022/03/09 09:14:57;;;;;;;16.25;8.63;;;4.90;79.80;;;;;;5054391;28;20032;-59
2022/03/09 09:17:23;;;;;;;14.45;12.15;;;5.00;79.80;;;;;;5053886;28;20503;-59
2022/03/09 09:19:49;;;;;;;17.33;15.52;;;4.90;78.10;;;;;;5053879;28;20017;-59
2022/03/09 09:22:15;;;;;;;13.55;9.10;;;5.20;79.90;;;;;;5054146;28;20021;-59
2022/03/09 09:24:41;;;;;;;12.55;8.20;;;5.50;79.00;;;;;;5054307;28;20017;-60
2022/03/09 09:27:06;;;;;;;9.30;7.28;;;5.40;76.00;;;;;;5054451;28;20104;-59
2022/03/09 09:29:32;;;;;;;9.55;7.63;;;5.50;76.40;;;;;;5054508;28;20163;-57
2022/03/09 09:31:58;;;;;;;13.65;7.82;;;5.60;74.30;;;;;;5053223;28;20044;-57
2022/03/09 09:34:25;;;;;;;14.75;10.43;;;6.10;76.00;;;;;;5054294;28;20021;-60
2022/03/09 09:36:52;;;;;;;18.08;13.05;;;6.30;75.30;;;;;;5054360;28;20100;-60
2022/03/09 09:39:18;;;;;;;13.18;9.05;;;6.50;72.50;;;;;;5054517;28;20028;-59
2022/03/09 09:41:47;;;;;;;14.35;8.85;;;6.60;69.90;;;;;;5054554;28;20387;-60
2022/03/09 09:44:14;;;;;;;17.63;10.68;;;6.80;69.80;;;;;;5053099;28;20029;-59
2022/03/09 09:46:41;;;;;;;14.60;9.63;;;7.10;69.60;;;;;;5054227;28;20068;-60
2022/03/09 09:49:13;;;;;;;17.58;13.57;;;7.40;69.20;;;;;;5054164;28;20045;-60
2022/03/09 09:51:41;;;;;;;15.25;9.15;;;7.70;69.20;;;;;;5052733;28;20480;-60
2022/03/09 09:54:07;;;;;;;12.65;9.13;;;7.80;67.00;;;;;;5054048;28;20104;-59
2022/03/09 09:56:38;;;;;;;15.98;9.23;;;7.80;64.30;;;;;;5054062;28;20021;-59
2022/03/09 09:59:04;;;;;;;14.90;9.70;;;7.80;62.80;;;;;;5054092;28;20021;-60
2022/03/09 10:01:30;;;;;;;15.40;8.88;;;8.00;61.80;;;;;;5053960;28;20025;-61
2022/03/09 10:03:56;;;;;;;13.43;8.35;;;8.10;63.00;;;;;;5052737;28;20052;-60
2022/03/09 10:06:21;;;;;;;13.65;8.70;;;8.40;59.60;;;;;;5053912;28;20861;-60
2022/03/09 10:09:07;;;;;;;12.02;9.45;;;8.60;59.80;;;;;;5053877;28;20494;-59
2022/03/09 10:11:54;;;;;;;21.33;8.57;;;8.80;58.70;;;;;;5053734;28;20028;-59
2022/03/09 10:14:52;;;;;;;15.52;9.38;;;8.70;56.20;;;;;;5053490;28;20049;-60
2022/03/09 10:17:30;;;;;;;19.75;8.85;;;8.90;55.50;;;;;;5053724;28;20017;-60
2022/03/09 10:19:58;;;;;;;13.52;7.20;;;9.00;54.60;;;;;;5053464;28;20040;-60
2022/03/09 10:22:46;;;;;;;14.60;8.23;;;9.20;54.60;;;;;;5053576;28;20591;-60
2022/03/09 10:25:13;;;;;;;12.30;9.23;;;9.20;52.20;;;;;;5053136;28;20037;-60
2022/03/09 10:27:50;;;;;;;18.63;8.88;;;9.40;52.80;;;;;;5053358;28;20113;-60
2022/03/09 10:30:16;;;;;;;21.60;8.75;;;9.30;52.00;;;;;;5044463;28;20135;-59
2022/03/09 10:32:49;;;;;;;13.52;8.88;;;9.50;52.20;;;;;;5041718;28;20396;-59
2022/03/09 10:35:18;;;;;;;12.40;8.70;;;9.80;51.00;;;;;;5042923;28;20041;-60
2022/03/09 10:37:46;;;;;;;27.60;10.45;;;9.80;51.70;;;;;;5042191;28;20083;-59
2022/03/09 10:40:18;;;;;;;18.77;7.50;;;10.00;51.70;;;;;;5042556;28;20031;-60
2022/03/09 10:42:44;;;;;;;12.70;7.93;;;10.50;50.90;;;;;;5060404;28;20486;-61
2022/03/09 10:45:10;;;;;;;11.68;7.82;;;11.10;48.90;;;;;;5051975;28;20456;-60
2022/03/09 10:47:47;;;;;;;11.88;7.90;;;11.70;46.40;;;;;;5041801;28;20075;-59
2022/03/09 10:50:15;;;;;;;18.15;7.68;;;13.00;44.60;;;;;;5042219;28;20083;-60
2022/03/09 10:52:42;;;;;;;13.65;8.15;;;12.90;42.60;;;;;;5041895;28;20032;-60
2022/03/09 10:55:31;;;;;;;14.13;7.68;;;14.00;40.10;;;;;;5042759;28;20376;-60
2022/03/09 10:58:16;;;;;;;11.93;7.05;;;15.20;38.90;;;;;;5043571;28;20094;-61
2022/03/09 11:00:43;;;;;;;10.68;7.03;;;15.90;36.40;;;;;;5043911;28;20029;-61
2022/03/09 11:03:17;;;;;;;7.43;6.63;;;15.90;35.70;;;;;;5041348;28;20381;-61
2022/03/09 11:06:03;;;;;;;8.82;6.60;;;15.90;36.10;;;;;;5041721;28;20661;-60
2022/03/09 11:08:31;;;;;;;9.70;7.57;;;16.80;33.30;;;;;;5042183;28;20032;-61
2022/03/09 11:11:01;;;;;;;14.32;6.75;;;16.60;33.40;;;;;;5042288;28;20166;-61
2022/03/09 11:13:31;;;;;;;9.65;7.50;;;17.40;32.70;;;;;;5050975;28;20037;-60
2022/03/09 11:15:57;;;;;;;13.95;7.53;;;17.80;33.20;;;;;;5042053;28;20420;-61
2022/03/09 11:18:28;;;;;;;8.45;6.75;;;18.90;33.30;;;;;;5049488;28;20088;-61
2022/03/09 11:21:00;;;;;;;12.48;6.43;;;18.50;30.70;;;;;;5045107;28;20017;-60
2022/03/09 11:23:28;;;;;;;12.65;6.32;;;18.20;31.50;;;;;;5043191;28;20036;-61
2022/03/09 11:26:13;;;;;;;11.40;7.45;;;18.60;30.30;;;;;;5042343;28;20037;-59
2022/03/09 11:28:40;;;;;;;6.93;5.47;;;18.80;29.80;;;;;;5056447;28;20360;-59
2022/03/09 11:31:12;;;;;;;10.65;6.32;;;18.40;29.70;;;;;;5041917;28;20115;-59
2022/03/09 11:33:48;;;;;;;9.20;5.75;;;18.30;30.00;;;;;;5041697;28;20033;-58
2022/03/09 11:36:29;;;;;;;8.48;5.90;;;18.70;29.30;;;;;;5040967;28;20028;-58
2022/03/09 11:39:04;;;;;;;7.28;5.03;;;17.80;30.70;;;;;;5040441;28;20360;-59
2022/03/09 11:41:35;;;;;;;7.72;6.18;;;18.30;29.50;;;;;;5042330;28;20171;-59
2022/03/09 11:44:19;;;;;;;6.07;4.72;;;18.30;29.50;;;;;;5043219;28;20025;-59
2022/03/09 11:46:57;;;;;;;10.48;5.13;;;18.60;29.20;;;;;;5041335;28;20033;-59
2022/03/09 11:49:23;;;;;;;5.07;3.80;;;19.40;28.80;;;;;;5052818;28;20025;-58
2022/03/09 11:52:06;;;;;;;4.15;3.75;;;19.20;28.20;;;;;;5040960;28;20037;-58
2022/03/09 11:54:45;;;;;;;8.10;3.90;;;18.60;28.60;;;;;;5040568;28;20079;-59
2022/03/09 11:57:12;;;;;;;9.32;3.65;;;18.80;28.10;;;;;;5044256;28;22202;-59
2022/03/09 11:59:38;;;;;;;5.82;3.45;;;19.10;27.80;;;;;;5042086;28;20397;-59
2022/03/09 12:02:10;;;;;;;4.13;2.63;;;19.90;27.30;;;;;;5040632;28;20036;-59
2022/03/09 12:04:50;;;;;;;6.25;3.83;;;20.20;27.50;;;;;;5040937;28;20094;-59
2022/03/09 12:07:28;;;;;;;5.18;3.72;;;20.00;27.70;;;;;;5040111;28;20056;-58
2022/03/09 12:10:04;;;;;;;5.38;3.83;;;20.10;28.10;;;;;;5040999;28;20040;-59
2022/03/09 12:12:31;;;;;;;5.32;3.53;;;19.70;27.60;;;;;;5040454;28;20657;-59
2022/03/09 12:15:07;;;;;;;6.80;4.05;;;19.20;27.60;;;;;;5040757;28;20029;-60
2022/03/09 12:17:37;;;;;;;3.50;3.20;;;20.30;27.80;;;;;;5041322;28;20025;-59
2022/03/09 12:20:29;;;;;;;2.90;2.60;;;20.80;27.10;;;;;;5040630;28;20036;-60
2022/03/09 12:22:59;;;;;;;4.05;3.08;;;21.30;26.90;;;;;;5040216;28;20029;-58
2022/03/09 12:25:45;;;;;;;4.65;3.22;;;20.60;26.60;;;;;;5043199;28;20082;-59
2022/03/09 12:28:25;;;;;;;7.57;3.50;;;20.30;26.90;;;;;;5041224;28;20033;-59
2022/03/09 12:31:03;;;;;;;4.65;3.33;;;20.10;27.10;;;;;;5041205;28;20029;-58
2022/03/09 12:33:38;;;;;;;12.05;3.42;;;20.90;27.20;;;;;;5041176;28;20060;-59
2022/03/09 12:36:17;;;;;;;3.92;3.50;;;22.40;27.30;;;;;;5040433;28;20401;-60
2022/03/09 12:38:49;;;;;;;5.43;3.47;;;21.70;26.10;;;;;;5040646;28;20060;-60